createdAt,value
2022-10-20T00:00:24.828Z,22.13
2022-10-20T00:02:54.424Z,21.93
2022-10-20T00:05:23.122Z,21.43
2022-10-20T00:07:53.263Z,22.93
2022-10-20T00:10:22.106Z,19.80
2022-10-20T00:12:50.790Z,20.50
2022-10-20T00:15:19.851Z,19.57
2022-10-20T00:17:53.286Z,18.63
2022-10-20T00:20:22.442Z,22.80
2022-10-20T00:22:52.680Z,18.67
2022-10-20T00:25:21.564Z,18.93
2022-10-20T00:27:50.372Z,18.77
2022-10-20T00:30:21.401Z,19.40
2022-10-20T00:32:52.389Z,17.80
2022-10-20T00:35:20.942Z,18.50
2022-10-20T00:37:49.821Z,17.60
2022-10-20T00:40:20.039Z,16.80
2022-10-20T00:42:49.409Z,17.10
2022-10-20T00:45:27.942Z,18.00
2022-10-20T00:48:01.687Z,16.07
2022-10-20T00:50:41.668Z,15.67
2022-10-20T00:53:12.062Z,14.97
2022-10-20T00:55:47.460Z,13.97
2022-10-20T00:58:16.815Z,13.47
2022-10-20T01:00:52.515Z,13.53
2022-10-20T01:03:29.239Z,14.70
2022-10-20T01:05:58.019Z,14.57
2022-10-20T01:08:26.775Z,12.77
2022-10-20T01:11:19.222Z,13.17
2022-10-20T01:14:08.418Z,12.33
2022-10-20T01:16:50.688Z,12.83
2022-10-20T01:20:32.575Z,11.73
2022-10-20T01:24:03.624Z,12.77
2022-10-20T01:27:18.735Z,11.90
2022-10-20T01:29:57.510Z,11.43
2022-10-20T01:32:37.200Z,11.97
2022-10-20T01:35:14.555Z,11.67
2022-10-20T01:37:53.442Z,14.43
2022-10-20T01:40:31.354Z,16.60
2022-10-20T01:43:05.978Z,15.87
2022-10-20T01:45:39.858Z,14.40
2022-10-20T01:48:12.110Z,15.50
2022-10-20T01:50:43.003Z,15.17
2022-10-20T01:53:37.146Z,15.80
2022-10-20T01:56:08.343Z,16.47
2022-10-20T01:59:20.428Z,18.23
2022-10-20T02:02:22.325Z,16.10
2022-10-20T02:05:23.754Z,13.83
2022-10-20T02:07:55.613Z,15.40
2022-10-20T02:10:36.806Z,14.07
2022-10-20T02:13:10.867Z,13.03
2022-10-20T02:15:44.934Z,12.47
2022-10-20T02:18:19.670Z,13.33
2022-10-20T02:20:53.949Z,12.23
2022-10-20T02:23:22.823Z,13.87
2022-10-20T02:25:56.326Z,13.80
2022-10-20T02:28:28.074Z,13.57
2022-10-20T02:30:58.733Z,12.17
2022-10-20T02:33:30.266Z,13.47
2022-10-20T02:36:01.104Z,13.37
2022-10-20T02:38:29.593Z,13.47
2022-10-20T02:40:58.282Z,14.90
2022-10-20T02:43:27.138Z,14.87
2022-10-20T02:45:55.858Z,15.03
2022-10-20T02:48:24.855Z,14.73
2022-10-20T02:50:55.141Z,14.57
2022-10-20T02:53:23.977Z,15.03
2022-10-20T02:55:52.782Z,14.10
2022-10-20T02:58:21.311Z,14.17
2022-10-20T03:00:51.768Z,14.60
2022-10-20T03:03:21.310Z,16.27
2022-10-20T03:05:50.035Z,15.83
2022-10-20T03:08:20.271Z,16.83
2022-10-20T03:10:49.258Z,16.00
2022-10-20T03:13:18.356Z,14.23
2022-10-20T03:15:47.187Z,14.13
2022-10-20T03:18:15.845Z,13.60
2022-10-20T03:20:45.847Z,15.37
2022-10-20T03:23:17.692Z,14.20
2022-10-20T03:25:50.413Z,14.70
2022-10-20T03:28:19.416Z,14.03
2022-10-20T03:30:48.205Z,17.70
2022-10-20T03:33:16.719Z,15.53
2022-10-20T03:35:45.151Z,15.47
2022-10-20T03:38:16.845Z,16.00
2022-10-20T03:40:45.472Z,14.97
2022-10-20T03:43:16.374Z,13.73
2022-10-20T03:45:45.673Z,16.27
2022-10-20T03:48:14.502Z,14.77
2022-10-20T03:50:44.149Z,14.33
2022-10-20T03:53:15.718Z,13.17
2022-10-20T03:55:44.614Z,15.00
2022-10-20T03:58:15.242Z,18.17
2022-10-20T04:00:43.853Z,15.93
2022-10-20T04:03:12.319Z,16.93
2022-10-20T04:05:41.108Z,13.57
2022-10-20T04:08:10.025Z,13.00
2022-10-20T04:10:38.871Z,13.73
2022-10-20T04:13:09.233Z,14.57
2022-10-20T04:15:39.432Z,17.60
2022-10-20T04:18:08.337Z,14.23
2022-10-20T04:20:39.341Z,15.60
2022-10-20T04:23:10.574Z,14.73
2022-10-20T04:25:46.005Z,14.17
2022-10-20T04:28:14.803Z,15.50
2022-10-20T04:30:46.090Z,16.50
2022-10-20T04:33:39.517Z,14.23
2022-10-20T04:36:13.043Z,13.37
2022-10-20T04:38:41.796Z,16.17
2022-10-20T04:41:12.131Z,15.70
2022-10-20T04:43:40.863Z,15.50
2022-10-20T04:46:12.607Z,14.60
2022-10-20T04:48:44.967Z,16.20
2022-10-20T04:51:16.512Z,15.57
2022-10-20T04:54:09.821Z,13.37
2022-10-20T04:56:38.659Z,17.23
2022-10-20T04:59:09.710Z,14.03
2022-10-20T05:01:43.127Z,14.80
2022-10-20T05:04:12.536Z,14.63
2022-10-20T05:06:41.152Z,16.90
2022-10-20T05:09:09.920Z,13.50
2022-10-20T05:11:39.210Z,15.67
2022-10-20T05:14:37.093Z,14.43
2022-10-20T05:17:09.331Z,14.10
2022-10-20T05:19:38.720Z,13.43
2022-10-20T05:22:07.324Z,16.53
2022-10-20T05:24:36.179Z,15.87
2022-10-20T05:27:04.839Z,13.37
2022-10-20T05:29:33.310Z,17.07
2022-10-20T05:32:01.912Z,13.97
2022-10-20T05:34:32.124Z,14.33
2022-10-20T05:37:04.070Z,14.50
2022-10-20T05:39:32.715Z,17.93
2022-10-20T05:42:07.754Z,14.70
2022-10-20T05:44:37.823Z,15.60
2022-10-20T05:47:06.555Z,17.20
2022-10-20T05:49:36.892Z,16.70
2022-10-20T05:52:05.647Z,17.47
2022-10-20T05:54:34.325Z,16.70
2022-10-20T05:57:03.029Z,17.87
2022-10-20T05:59:32.551Z,18.93
2022-10-20T06:02:24.087Z,17.63
2022-10-20T06:04:54.307Z,15.30
2022-10-20T06:07:22.863Z,17.00
2022-10-20T06:09:51.395Z,16.00
2022-10-20T06:12:20.099Z,16.10
2022-10-20T06:14:48.650Z,16.77
2022-10-20T06:17:17.259Z,14.53
2022-10-20T06:19:45.977Z,19.57
2022-10-20T06:22:16.125Z,15.67
2022-10-20T06:24:44.644Z,14.70
2022-10-20T06:27:13.062Z,14.97
2022-10-20T06:29:41.540Z,14.50
2022-10-20T06:32:10.223Z,15.90
2022-10-20T06:34:38.943Z,16.00
2022-10-20T06:37:12.502Z,14.53
2022-10-20T06:39:42.625Z,14.33
2022-10-20T06:42:12.214Z,13.40
2022-10-20T06:44:40.903Z,13.23
2022-10-20T06:47:10.496Z,13.13
2022-10-20T06:49:39.037Z,15.20
2022-10-20T06:52:33.426Z,13.60
2022-10-20T06:55:03.552Z,14.27
2022-10-20T06:57:33.382Z,13.07
2022-10-20T07:00:01.939Z,15.03
2022-10-20T07:02:30.494Z,13.30
2022-10-20T07:04:59.253Z,13.50
2022-10-20T07:07:27.976Z,13.83
2022-10-20T07:09:56.906Z,15.63
2022-10-20T07:12:26.959Z,15.10
2022-10-20T07:14:56.020Z,14.80
2022-10-20T07:17:25.972Z,15.57
2022-10-20T07:20:10.958Z,15.33
2022-10-20T07:22:39.626Z,15.60
2022-10-20T07:25:09.656Z,18.63
2022-10-20T07:27:39.535Z,13.27
2022-10-20T07:30:09.409Z,12.67
2022-10-20T07:32:38.331Z,14.33
2022-10-20T07:35:08.441Z,14.20
2022-10-20T07:37:37.104Z,12.77
2022-10-20T07:40:07.258Z,13.60
2022-10-20T07:42:36.046Z,13.57
2022-10-20T07:45:07.946Z,11.47
2022-10-20T07:47:39.263Z,15.67
2022-10-20T07:50:10.582Z,10.93
2022-10-20T07:52:57.994Z,10.60
2022-10-20T07:55:38.212Z,11.30
2022-10-20T07:58:08.390Z,13.07
2022-10-20T08:03:11.409Z,13.13
2022-10-20T08:05:39.946Z,10.33
2022-10-20T08:08:08.498Z,9.60
2022-10-20T08:10:45.695Z,9.47
2022-10-20T08:13:14.283Z,12.13
2022-10-20T08:15:54.965Z,11.03
2022-10-20T08:18:26.023Z,12.13
2022-10-20T08:20:54.787Z,9.63
2022-10-20T08:23:23.811Z,9.13
2022-10-20T08:25:57.755Z,10.70
2022-10-20T08:28:27.121Z,7.93
2022-10-20T08:30:57.211Z,10.80
2022-10-20T08:33:25.708Z,6.97
2022-10-20T08:35:54.365Z,7.67
2022-10-20T08:38:23.481Z,7.60
2022-10-20T08:40:52.172Z,7.67
2022-10-20T08:43:21.874Z,6.30
2022-10-20T08:45:56.876Z,7.40
2022-10-20T08:48:28.830Z,5.80
2022-10-20T08:50:58.462Z,6.20
2022-10-20T08:53:30.838Z,5.63
2022-10-20T08:55:59.426Z,6.33
2022-10-20T08:58:28.303Z,7.03
2022-10-20T09:01:01.850Z,5.70
2022-10-20T09:03:32.813Z,4.97
2022-10-20T09:06:10.233Z,5.00
2022-10-20T09:08:40.897Z,6.47
2022-10-20T09:11:17.395Z,6.80
2022-10-20T09:16:40.647Z,5.47
2022-10-20T09:19:19.218Z,5.03
2022-10-20T09:21:53.195Z,6.40
2022-10-20T09:24:24.378Z,5.27
2022-10-20T09:29:46.852Z,5.70
2022-10-20T09:32:48.619Z,5.53
2022-10-20T09:35:25.333Z,5.13
2022-10-20T09:38:04.354Z,5.27
2022-10-20T09:40:33.969Z,5.20
2022-10-20T09:43:14.049Z,4.50
2022-10-20T09:45:54.735Z,6.83
2022-10-20T09:48:29.895Z,5.30
2022-10-20T09:51:08.730Z,4.30
2022-10-20T09:53:50.162Z,4.27
2022-10-20T09:56:28.307Z,5.33
2022-10-20T09:59:26.573Z,4.57
2022-10-20T10:01:58.794Z,6.80
2022-10-20T10:04:47.311Z,5.63
2022-10-20T10:07:33.205Z,4.80
2022-10-20T10:10:08.143Z,6.77
2022-10-20T10:12:37.995Z,4.50
2022-10-20T10:15:24.435Z,5.03
2022-10-20T10:17:53.355Z,5.10
2022-10-20T10:20:42.796Z,4.20
2022-10-20T10:23:22.493Z,4.73
2022-10-20T10:25:52.925Z,4.93
2022-10-20T10:28:32.605Z,5.37
2022-10-20T10:31:24.410Z,7.03
2022-10-20T10:34:03.633Z,4.47
2022-10-20T10:36:37.547Z,4.57
2022-10-20T10:39:13.094Z,4.03
2022-10-20T10:42:01.794Z,5.40
2022-10-20T10:44:48.421Z,4.23
2022-10-20T10:47:40.232Z,5.77
2022-10-20T10:50:31.991Z,5.43
2022-10-20T10:53:20.295Z,4.57
2022-10-20T10:55:57.949Z,4.33
2022-10-20T10:58:44.197Z,6.57
2022-10-20T11:01:43.948Z,4.03
2022-10-20T11:04:44.432Z,4.73
2022-10-20T11:07:29.455Z,4.00
2022-10-20T11:10:12.099Z,5.43
2022-10-20T11:12:58.701Z,4.23
2022-10-20T11:15:45.566Z,4.33
2022-10-20T11:18:32.236Z,5.60
2022-10-20T11:21:14.195Z,6.17
2022-10-20T11:24:14.221Z,4.03
2022-10-20T11:26:50.424Z,4.60
2022-10-20T11:29:34.220Z,4.60
2022-10-20T11:32:19.496Z,5.60
2022-10-20T11:35:01.158Z,5.13
2022-10-20T11:37:33.703Z,4.97
2022-10-20T11:40:40.821Z,6.43
2022-10-20T11:43:23.877Z,4.63
2022-10-20T11:45:57.524Z,4.10
2022-10-20T11:48:32.906Z,5.40
2022-10-20T11:51:40.935Z,5.87
2022-10-20T11:54:37.273Z,6.40
2022-10-20T11:57:21.439Z,5.57
2022-10-20T12:00:33.139Z,6.80
2022-10-20T12:03:42.591Z,4.37
2022-10-20T12:06:43.350Z,3.97
2022-10-20T12:09:57.198Z,8.37
2022-10-20T12:12:34.564Z,7.70
2022-10-20T12:15:19.827Z,6.80
2022-10-20T12:17:52.431Z,11.67
2022-10-20T12:20:52.001Z,4.10
2022-10-20T12:24:05.992Z,4.10
2022-10-20T12:27:21.970Z,4.07
2022-10-20T12:29:54.718Z,3.97
2022-10-20T12:33:10.993Z,4.37
2022-10-20T12:36:16.287Z,4.60
2022-10-20T12:38:47.138Z,4.47
2022-10-20T12:41:30.208Z,3.33
2022-10-20T12:44:04.767Z,3.83
2022-10-20T12:47:07.935Z,5.03
2022-10-20T12:49:41.694Z,3.87
2022-10-20T12:52:22.122Z,3.57
2022-10-20T12:55:07.192Z,4.87
2022-10-20T12:57:41.793Z,3.43
2022-10-20T13:01:18.860Z,6.10
2022-10-20T13:03:52.878Z,8.53
2022-10-20T13:06:53.176Z,3.90
2022-10-20T13:09:25.614Z,3.60
2022-10-20T13:12:06.649Z,4.33
2022-10-20T13:14:55.730Z,3.50
2022-10-20T13:17:51.929Z,3.47
2022-10-20T13:20:30.942Z,2.97
2022-10-20T13:23:02.064Z,4.57
2022-10-20T13:25:42.058Z,3.80
2022-10-20T13:28:22.214Z,3.57
2022-10-20T13:31:45.183Z,3.43
2022-10-20T13:34:23.475Z,4.23
2022-10-20T13:37:21.669Z,3.53
2022-10-20T13:40:10.675Z,3.10
2022-10-20T13:42:55.592Z,3.47
2022-10-20T13:45:53.434Z,3.07
2022-10-20T13:48:43.687Z,7.27
2022-10-20T13:51:19.875Z,40.80
2022-10-20T13:53:54.388Z,14.00
2022-10-20T13:56:35.339Z,41.40
2022-10-20T13:59:07.040Z,32.37
2022-10-20T14:01:38.114Z,5.37
2022-10-20T14:04:26.294Z,7.23
2022-10-20T14:06:55.610Z,9.77
2022-10-20T14:09:26.973Z,5.77
2022-10-20T14:12:03.852Z,5.20
2022-10-20T14:14:33.619Z,3.73
2022-10-20T14:17:09.334Z,4.03
2022-10-20T14:19:38.131Z,3.97
2022-10-20T14:22:19.026Z,5.67
2022-10-20T14:24:50.786Z,3.20
2022-10-20T14:27:26.330Z,4.37
2022-10-20T14:29:56.177Z,4.40
2022-10-20T14:32:29.142Z,3.37
2022-10-20T14:35:01.192Z,7.77
2022-10-20T14:37:35.755Z,4.50
2022-10-20T14:40:09.808Z,6.03
2022-10-20T14:42:47.058Z,4.20
2022-10-20T14:45:22.520Z,5.30
2022-10-20T14:47:53.830Z,6.13
2022-10-20T14:50:27.100Z,6.37
2022-10-20T14:52:56.054Z,4.60
2022-10-20T14:55:38.672Z,3.83
2022-10-20T14:58:38.369Z,6.33
2022-10-20T15:01:26.269Z,4.40
2022-10-20T15:04:26.025Z,7.63
2022-10-20T15:07:08.748Z,4.10
2022-10-20T15:09:44.010Z,4.30
2022-10-20T15:12:19.426Z,3.77
2022-10-20T15:14:52.853Z,4.57
2022-10-20T15:17:37.577Z,4.83
2022-10-20T15:20:37.677Z,4.90
2022-10-20T15:23:10.647Z,5.67
2022-10-20T15:25:48.464Z,4.90
2022-10-20T15:28:39.282Z,3.87
2022-10-20T15:31:22.366Z,5.93
2022-10-20T15:33:57.855Z,11.70
2022-10-20T15:36:32.453Z,7.37
2022-10-20T15:39:01.872Z,20.10
2022-10-20T15:41:33.835Z,16.93
2022-10-20T15:44:14.601Z,19.93
2022-10-20T15:46:46.291Z,23.37
2022-10-20T15:49:15.969Z,17.83
2022-10-20T15:51:47.812Z,17.53
2022-10-20T15:54:20.589Z,13.07
2022-10-20T15:56:49.830Z,11.13
2022-10-20T15:59:18.697Z,12.67
2022-10-20T16:01:48.986Z,15.73
2022-10-20T16:04:23.218Z,12.33
2022-10-20T16:06:57.732Z,30.70
2022-10-20T16:09:28.019Z,25.57
2022-10-20T16:11:56.783Z,21.63
2022-10-20T16:14:25.797Z,12.93
2022-10-20T16:16:58.432Z,13.07
2022-10-20T16:19:27.114Z,12.43
2022-10-20T16:21:55.921Z,20.20
2022-10-20T16:24:24.680Z,11.23
2022-10-20T16:27:28.073Z,8.77
2022-10-20T16:29:56.578Z,6.13
2022-10-20T16:32:29.174Z,6.70
2022-10-20T16:35:01.727Z,7.80
2022-10-20T16:37:32.658Z,9.47
2022-10-20T16:40:01.867Z,6.37
2022-10-20T16:42:31.753Z,13.03
2022-10-20T16:45:00.648Z,14.63
2022-10-20T16:47:30.842Z,24.60
2022-10-20T16:49:59.659Z,18.37
2022-10-20T16:52:28.295Z,17.07
2022-10-20T16:54:57.002Z,15.40
2022-10-20T16:57:52.016Z,13.33
2022-10-20T17:00:20.875Z,22.17
2022-10-20T17:02:53.002Z,17.07
2022-10-20T17:05:26.383Z,25.10
2022-10-20T17:07:55.616Z,16.23
2022-10-20T17:10:24.298Z,14.43
2022-10-20T17:12:53.151Z,14.10
2022-10-20T17:15:21.751Z,17.57
2022-10-20T17:17:52.238Z,15.47
2022-10-20T17:20:21.209Z,15.20
2022-10-20T17:22:50.240Z,20.70
2022-10-20T17:25:19.256Z,22.90
2022-10-20T17:27:47.975Z,24.97
2022-10-20T17:30:16.861Z,31.13
2022-10-20T17:32:45.518Z,27.37
2022-10-20T17:35:16.021Z,30.17
2022-10-20T17:37:44.819Z,22.53
2022-10-20T17:40:14.030Z,27.33
2022-10-20T17:42:43.002Z,26.83
2022-10-20T17:45:12.262Z,19.87
2022-10-20T17:47:41.283Z,17.80
2022-10-20T17:50:11.011Z,15.77
2022-10-20T17:52:41.526Z,12.53
2022-10-20T17:55:10.745Z,15.73
2022-10-20T17:57:39.582Z,11.93
2022-10-20T18:00:16.412Z,13.57
2022-10-20T18:02:53.057Z,13.97
2022-10-20T18:05:21.750Z,11.97
2022-10-20T18:07:52.562Z,16.87
2022-10-20T18:12:51.346Z,9.53
2022-10-20T18:15:20.206Z,24.60
2022-10-20T18:17:48.904Z,21.53
2022-10-20T18:20:18.148Z,19.27
2022-10-20T18:22:55.576Z,17.33
2022-10-20T18:25:24.272Z,9.13
2022-10-20T18:27:54.761Z,8.23
2022-10-20T18:30:23.732Z,7.43
2022-10-20T18:32:52.558Z,6.53
2022-10-20T18:35:23.503Z,6.03
2022-10-20T18:37:57.672Z,7.37
2022-10-20T18:40:26.622Z,6.10
2022-10-20T18:42:55.325Z,6.13
2022-10-20T18:45:25.990Z,7.60
2022-10-20T18:47:55.151Z,5.60
2022-10-20T18:50:23.948Z,9.53
2022-10-20T18:52:54.817Z,9.73
2022-10-20T18:55:23.826Z,9.03
2022-10-20T18:57:52.612Z,7.97
2022-10-20T19:00:21.794Z,10.27
2022-10-20T19:02:55.780Z,7.70
2022-10-20T19:05:26.545Z,11.23
2022-10-20T19:07:56.997Z,10.37
2022-10-20T19:10:25.857Z,7.43
2022-10-20T19:12:54.639Z,7.40
2022-10-20T19:15:23.394Z,7.03
2022-10-20T19:17:52.192Z,9.23
2022-10-20T19:20:21.010Z,9.63
2022-10-20T19:22:49.891Z,9.27
2022-10-20T19:25:20.574Z,8.33
2022-10-20T19:27:49.357Z,10.53
2022-10-20T19:30:18.934Z,7.80
2022-10-20T19:32:51.499Z,8.07
2022-10-20T19:35:21.255Z,7.07
2022-10-20T19:37:49.786Z,8.67
2022-10-20T19:40:20.541Z,10.03
2022-10-20T19:42:49.338Z,8.00
2022-10-20T19:45:47.746Z,6.67
2022-10-20T19:48:38.431Z,7.60
2022-10-20T19:51:10.065Z,8.37
2022-10-20T19:53:40.059Z,7.53
2022-10-20T19:56:12.773Z,9.20
2022-10-20T19:58:46.406Z,8.03
2022-10-20T20:01:16.370Z,8.57
2022-10-20T20:03:45.995Z,7.07
2022-10-20T20:06:17.686Z,8.97
2022-10-20T20:08:48.099Z,6.77
2022-10-20T20:11:42.773Z,6.93
2022-10-20T20:14:18.483Z,9.40
2022-10-20T20:16:48.015Z,8.80
2022-10-20T20:19:17.785Z,8.67
2022-10-20T20:21:47.036Z,10.17
2022-10-20T20:24:16.204Z,13.30
2022-10-20T20:26:47.237Z,9.50
2022-10-20T20:29:16.954Z,8.57
2022-10-20T20:31:45.782Z,10.23
2022-10-20T20:34:14.581Z,8.03
2022-10-20T20:36:43.219Z,12.07
2022-10-20T20:39:13.293Z,9.77
2022-10-20T20:41:42.464Z,11.33
2022-10-20T20:44:12.928Z,10.70
2022-10-20T20:46:41.801Z,9.33
2022-10-20T20:49:10.892Z,8.80
2022-10-20T20:51:39.649Z,8.87
2022-10-20T20:54:09.266Z,10.87
2022-10-20T20:56:38.134Z,12.47
2022-10-20T20:59:17.314Z,9.77
2022-10-20T21:01:46.001Z,9.60
2022-10-20T21:04:14.842Z,11.90
2022-10-20T21:07:01.139Z,12.57
2022-10-20T21:09:31.497Z,14.10
2022-10-20T21:12:00.203Z,15.43
2022-10-20T21:14:31.122Z,11.43
2022-10-20T21:16:59.790Z,12.70
2022-10-20T21:19:28.989Z,13.53
2022-10-20T21:21:58.607Z,15.37
2022-10-20T21:24:33.030Z,13.53
2022-10-20T21:27:01.677Z,15.13
2022-10-20T21:29:32.911Z,21.13
2022-10-20T21:32:02.672Z,19.83
2022-10-20T21:34:41.001Z,16.40
2022-10-20T21:37:09.595Z,14.57
2022-10-20T21:39:38.085Z,14.27
2022-10-20T21:42:06.718Z,12.90
2022-10-20T21:44:42.683Z,11.17
2022-10-20T21:47:11.446Z,12.03
2022-10-20T21:49:40.235Z,8.87
2022-10-20T21:52:08.943Z,8.70
2022-10-20T21:54:38.011Z,8.07
2022-10-20T21:57:06.670Z,9.00
2022-10-20T21:59:35.690Z,7.37
2022-10-20T22:02:07.341Z,8.30
2022-10-20T22:04:35.933Z,7.90
2022-10-20T22:07:04.451Z,9.37
2022-10-20T22:09:33.216Z,8.23
2022-10-20T22:12:02.113Z,8.47
2022-10-20T22:14:31.112Z,7.37
2022-10-20T22:17:00.421Z,7.03
2022-10-20T22:19:31.778Z,7.57
2022-10-20T22:22:00.637Z,6.77
2022-10-20T22:24:30.742Z,9.67
2022-10-20T22:26:59.924Z,9.50
2022-10-20T22:29:29.355Z,7.90
2022-10-20T22:31:58.152Z,6.80
2022-10-20T22:34:26.799Z,8.20
2022-10-20T22:36:57.202Z,6.77
2022-10-20T22:39:26.056Z,6.33
2022-10-20T22:41:54.746Z,6.80
2022-10-20T22:44:23.719Z,7.63
2022-10-20T22:46:52.371Z,6.00
2022-10-20T22:49:21.492Z,8.37
2022-10-20T22:51:50.406Z,6.20
2022-10-20T22:54:21.309Z,7.13
2022-10-20T22:56:53.182Z,7.93
2022-10-20T22:59:22.487Z,7.80
2022-10-20T23:01:51.398Z,6.60
2022-10-20T23:04:20.545Z,6.73
2022-10-20T23:07:14.887Z,6.80
2022-10-20T23:09:44.922Z,7.70
2022-10-20T23:12:13.695Z,9.93
2022-10-20T23:14:42.515Z,13.00
2022-10-20T23:17:11.148Z,15.00
2022-10-20T23:19:39.865Z,9.23
2022-10-20T23:22:08.737Z,9.57
2022-10-20T23:24:37.426Z,8.50
2022-10-20T23:27:07.577Z,8.00
2022-10-20T23:29:36.436Z,6.43
2022-10-20T23:32:05.837Z,7.50
2022-10-20T23:37:08.827Z,7.10
2022-10-20T23:39:37.619Z,7.67
2022-10-20T23:42:07.894Z,7.53
2022-10-20T23:44:36.563Z,7.10
2022-10-20T23:47:05.694Z,7.37
2022-10-20T23:49:34.604Z,6.77
2022-10-20T23:52:03.391Z,7.63
2022-10-20T23:54:32.213Z,8.97
2022-10-20T23:57:01.624Z,6.87
2022-10-20T23:59:32.124Z,8.37
